sensor_id;sensor_type;location;lat;lon;timestamp;pressure;altitude;pressure_sealevel;temperature;humidity
63607;BME280;51327;52.466;-1.938;2022-09-21T00:01:24;100883.97;;;12.89;84.66
63607;BME280;51327;52.466;-1.938;2022-09-21T00:03:54;100898.94;;;12.93;84.59
63607;BME280;51327;52.466;-1.938;2022-09-21T00:06:24;100908.53;;;12.97;84.67
63607;BME280;51327;52.466;-1.938;2022-09-21T00:08:55;100904.28;;;12.93;84.82
63607;BME280;51327;52.466;-1.938;2022-09-21T00:11:26;100906.97;;;12.93;84.67
63607;BME280;51327;52.466;-1.938;2022-09-21T00:13:57;100900.25;;;12.86;84.97
63607;BME280;51327;52.466;-1.938;2022-09-21T00:16:28;100888.13;;;12.79;85.08
63607;BME280;51327;52.466;-1.938;2022-09-21T00:18:55;100878.63;;;12.73;84.92
63607;BME280;51327;52.466;-1.938;2022-09-21T00:21:21;100897.13;;;12.78;85.08
63607;BME280;51327;52.466;-1.938;2022-09-21T00:23:47;100868.50;;;12.62;84.96
63607;BME280;51327;52.466;-1.938;2022-09-21T00:26:22;100904.81;;;12.84;85.41
63607;BME280;51327;52.466;-1.938;2022-09-21T00:28:57;100908.44;;;12.83;85.49
63607;BME280;51327;52.466;-1.938;2022-09-21T00:31:25;100883.38;;;12.68;85.51
63607;BME280;51327;52.466;-1.938;2022-09-21T00:33:52;100886.13;;;12.66;85.47
63607;BME280;51327;52.466;-1.938;2022-09-21T00:36:20;100881.09;;;12.60;85.78
63607;BME280;51327;52.466;-1.938;2022-09-21T00:38:53;100887.16;;;12.64;85.64
63607;BME280;51327;52.466;-1.938;2022-09-21T00:41:21;100868.84;;;12.56;85.53
63607;BME280;51327;52.466;-1.938;2022-09-21T00:46:44;100865.97;;;12.43;85.89
63607;BME280;51327;52.466;-1.938;2022-09-21T00:49:13;100875.84;;;12.43;86.11
63607;BME280;51327;52.466;-1.938;2022-09-21T00:51:42;100897.63;;;12.52;86.54
63607;BME280;51327;52.466;-1.938;2022-09-21T00:54:27;100828.09;;;12.02;86.78
63607;BME280;51327;52.466;-1.938;2022-09-21T00:56:56;100870.78;;;12.21;87.32
63607;BME280;51327;52.466;-1.938;2022-09-21T00:59:32;100907.47;;;12.36;87.37
63607;BME280;51327;52.466;-1.938;2022-09-21T01:02:00;100886.00;;;12.20;87.65
63607;BME280;51327;52.466;-1.938;2022-09-21T01:04:29;100889.53;;;12.21;87.72
63607;BME280;51327;52.466;-1.938;2022-09-21T01:06:59;100904.50;;;12.25;87.79
63607;BME280;51327;52.466;-1.938;2022-09-21T01:09:28;100890.91;;;12.12;88.17
63607;BME280;51327;52.466;-1.938;2022-09-21T01:14:57;100902.47;;;12.12;88.53
63607;BME280;51327;52.466;-1.938;2022-09-21T01:25:58;100896.44;;;11.91;89.50
63607;BME280;51327;52.466;-1.938;2022-09-21T01:31:19;100869.28;;;11.64;90.30
63607;BME280;51327;52.466;-1.938;2022-09-21T01:33:52;100852.25;;;11.49;90.33
63607;BME280;51327;52.466;-1.938;2022-09-21T01:36:27;100867.81;;;11.59;90.48
63607;BME280;51327;52.466;-1.938;2022-09-21T01:38:58;100858.44;;;11.50;90.63
63607;BME280;51327;52.466;-1.938;2022-09-21T01:41:28;100853.34;;;11.45;90.70
63607;BME280;51327;52.466;-1.938;2022-09-21T01:44:03;100884.88;;;11.56;91.35
63607;BME280;51327;52.466;-1.938;2022-09-21T01:46:33;100877.25;;;11.48;91.48
63607;BME280;51327;52.466;-1.938;2022-09-21T01:49:10;100860.19;;;11.34;91.54
63607;BME280;51327;52.466;-1.938;2022-09-21T01:51:44;100887.06;;;11.48;91.97
63607;BME280;51327;52.466;-1.938;2022-09-21T01:54:27;100877.25;;;11.31;92.43
63607;BME280;51327;52.466;-1.938;2022-09-21T01:59:56;100886.94;;;11.34;92.80
63607;BME280;51327;52.466;-1.938;2022-09-21T02:02:44;100832.78;;;10.94;92.89
63607;BME280;51327;52.466;-1.938;2022-09-21T02:05:14;100892.66;;;11.26;93.65
63607;BME280;51327;52.466;-1.938;2022-09-21T02:07:44;100891.94;;;11.22;93.73
63607;BME280;51327;52.466;-1.938;2022-09-21T02:10:29;100880.81;;;11.13;93.80
63607;BME280;51327;52.466;-1.938;2022-09-21T02:13:01;100860.34;;;10.94;93.98
63607;BME280;51327;52.466;-1.938;2022-09-21T02:15:53;100855.00;;;10.94;94.29
63607;BME280;51327;52.466;-1.938;2022-09-21T02:18:42;100888.38;;;11.04;94.54
63607;BME280;51327;52.466;-1.938;2022-09-21T02:21:20;100871.38;;;10.88;94.75
63607;BME280;51327;52.466;-1.938;2022-09-21T02:24:12;100895.81;;;10.98;94.69
63607;BME280;51327;52.466;-1.938;2022-09-21T02:26:49;100862.13;;;10.76;95.06
63607;BME280;51327;52.466;-1.938;2022-09-21T02:29:25;100876.78;;;10.86;95.41
63607;BME280;51327;52.466;-1.938;2022-09-21T02:35:15;100883.78;;;10.89;95.84
63607;BME280;51327;52.466;-1.938;2022-09-21T02:37:50;100865.69;;;10.77;96.00
63607;BME280;51327;52.466;-1.938;2022-09-21T02:40:42;100879.44;;;10.86;96.32
63607;BME280;51327;52.466;-1.938;2022-09-21T02:44:14;100882.19;;;10.85;96.53
63607;BME280;51327;52.466;-1.938;2022-09-21T02:46:37;100845.56;;;10.70;96.42
63607;BME280;51327;52.466;-1.938;2022-09-21T02:49:11;100878.59;;;10.86;97.09
63607;BME280;51327;52.466;-1.938;2022-09-21T02:51:44;100874.97;;;10.87;96.48
63607;BME280;51327;52.466;-1.938;2022-09-21T02:54:18;100856.78;;;10.76;96.68
63607;BME280;51327;52.466;-1.938;2022-09-21T02:56:48;100866.31;;;10.82;96.85
63607;BME280;51327;52.466;-1.938;2022-09-21T02:59:17;100849.09;;;10.70;97.08
63607;BME280;51327;52.466;-1.938;2022-09-21T03:01:45;100828.06;;;10.62;96.88
63607;BME280;51327;52.466;-1.938;2022-09-21T03:04:11;100847.84;;;10.77;97.19
63607;BME280;51327;52.466;-1.938;2022-09-21T03:06:37;100822.16;;;10.56;97.08
63607;BME280;51327;52.466;-1.938;2022-09-21T03:09:05;100845.56;;;10.70;97.72
63607;BME280;51327;52.466;-1.938;2022-09-21T03:11:32;100838.41;;;10.70;97.94
63607;BME280;51327;52.466;-1.938;2022-09-21T03:14:02;100821.16;;;10.58;97.80
63607;BME280;51327;52.466;-1.938;2022-09-21T03:16:35;100837.22;;;10.76;97.58
63607;BME280;51327;52.466;-1.938;2022-09-21T03:19:03;100840.53;;;10.81;97.96
63607;BME280;51327;52.466;-1.938;2022-09-21T03:21:30;100840.38;;;10.84;97.87
63607;BME280;51327;52.466;-1.938;2022-09-21T03:23:55;100850.69;;;10.92;98.22
63607;BME280;51327;52.466;-1.938;2022-09-21T03:26:23;100822.03;;;10.76;98.11
63607;BME280;51327;52.466;-1.938;2022-09-21T03:28:51;100856.03;;;10.92;98.11
63607;BME280;51327;52.466;-1.938;2022-09-21T03:31:21;100837.09;;;10.79;97.85
63607;BME280;51327;52.466;-1.938;2022-09-21T03:33:48;100854.38;;;10.89;98.14
63607;BME280;51327;52.466;-1.938;2022-09-21T03:36:16;100820.72;;;10.68;98.02
63607;BME280;51327;52.466;-1.938;2022-09-21T03:38:42;100837.84;;;10.81;98.07
63607;BME280;51327;52.466;-1.938;2022-09-21T03:41:07;100780.03;;;10.43;98.33
63607;BME280;51327;52.466;-1.938;2022-09-21T03:43:35;100856.25;;;10.87;97.69
63607;BME280;51327;52.466;-1.938;2022-09-21T03:46:02;100846.75;;;10.81;98.14
63607;BME280;51327;52.466;-1.938;2022-09-21T03:48:28;100798.34;;;10.51;98.26
63607;BME280;51327;52.466;-1.938;2022-09-21T03:50:53;100794.00;;;10.49;98.38
63607;BME280;51327;52.466;-1.938;2022-09-21T03:53:21;100773.03;;;10.22;98.29
63607;BME280;51327;52.466;-1.938;2022-09-21T03:55:49;100804.28;;;10.39;98.04
63607;BME280;51327;52.466;-1.938;2022-09-21T03:58:16;100805.28;;;10.36;98.40
63607;BME280;51327;52.466;-1.938;2022-09-21T04:00:42;100828.81;;;10.47;98.86
63607;BME280;51327;52.466;-1.938;2022-09-21T04:03:08;100833.44;;;10.43;98.77
63607;BME280;51327;52.466;-1.938;2022-09-21T04:05:37;100822.25;;;10.35;98.86
63607;BME280;51327;52.466;-1.938;2022-09-21T04:08:03;100791.19;;;10.14;99.14
63607;BME280;51327;52.466;-1.938;2022-09-21T04:10:29;100824.44;;;10.25;99.72
63607;BME280;51327;52.466;-1.938;2022-09-21T04:13:00;100825.47;;;10.23;99.98
63607;BME280;51327;52.466;-1.938;2022-09-21T04:15:28;100844.56;;;10.34;100.00
63607;BME280;51327;52.466;-1.938;2022-09-21T04:17:56;100820.78;;;10.28;100.00
63607;BME280;51327;52.466;-1.938;2022-09-21T04:20:22;100789.44;;;10.13;100.00
63607;BME280;51327;52.466;-1.938;2022-09-21T04:22:48;100803.09;;;10.25;100.00
63607;BME280;51327;52.466;-1.938;2022-09-21T04:25:16;100822.03;;;10.40;100.00
63607;BME280;51327;52.466;-1.938;2022-09-21T04:27:43;100778.59;;;10.17;100.00
63607;BME280;51327;52.466;-1.938;2022-09-21T04:30:12;100801.22;;;10.28;100.00
63607;BME280;51327;52.466;-1.938;2022-09-21T04:32:39;100805.13;;;10.39;100.00
63607;BME280;51327;52.466;-1.938;2022-09-21T04:35:05;100819.69;;;10.51;100.00
63607;BME280;51327;52.466;-1.938;2022-09-21T04:37:33;100805.78;;;10.44;100.00
63607;BME280;51327;52.466;-1.938;2022-09-21T04:40:02;100815.16;;;10.53;100.00
63607;BME280;51327;52.466;-1.938;2022-09-21T04:42:30;100802.25;;;10.44;100.00
63607;BME280;51327;52.466;-1.938;2022-09-21T04:44:58;100799.28;;;10.50;100.00
63607;BME280;51327;52.466;-1.938;2022-09-21T04:47:28;100813.16;;;10.58;100.00
63607;BME280;51327;52.466;-1.938;2022-09-21T04:49:56;100792.22;;;10.49;100.00
63607;BME280;51327;52.466;-1.938;2022-09-21T04:52:24;100794.00;;;10.49;100.00
63607;BME280;51327;52.466;-1.938;2022-09-21T04:54:52;100798.22;;;10.54;100.00
63607;BME280;51327;52.466;-1.938;2022-09-21T04:57:19;100786.72;;;10.52;100.00
63607;BME280;51327;52.466;-1.938;2022-09-21T04:59:47;100810.03;;;10.68;100.00
63607;BME280;51327;52.466;-1.938;2022-09-21T05:02:14;100811.00;;;10.65;100.00
63607;BME280;51327;52.466;-1.938;2022-09-21T05:04:42;100780.75;;;10.47;100.00
63607;BME280;51327;52.466;-1.938;2022-09-21T05:07:10;100799.13;;;10.53;100.00
63607;BME280;51327;52.466;-1.938;2022-09-21T05:09:37;100785.22;;;10.47;100.00
63607;BME280;51327;52.466;-1.938;2022-09-21T05:12:24;100820.56;;;10.71;100.00
63607;BME280;51327;52.466;-1.938;2022-09-21T05:14:51;100837.09;;;10.79;100.00
63607;BME280;51327;52.466;-1.938;2022-09-21T05:17:19;100833.84;;;10.72;100.00
63607;BME280;51327;52.466;-1.938;2022-09-21T05:19:50;100835.09;;;10.82;100.00
63607;BME280;51327;52.466;-1.938;2022-09-21T05:22:18;100821.19;;;10.76;100.00
63607;BME280;51327;52.466;-1.938;2022-09-21T05:24:46;100808.16;;;10.70;100.00
63607;BME280;51327;52.466;-1.938;2022-09-21T05:27:14;100813.41;;;10.71;100.00
63607;BME280;51327;52.466;-1.938;2022-09-21T05:29:42;100815.22;;;10.71;100.00
63607;BME280;51327;52.466;-1.938;2022-09-21T05:32:22;100847.16;;;10.91;100.00
63607;BME280;51327;52.466;-1.938;2022-09-21T05:40:39;100793.50;;;10.59;100.00
63607;BME280;51327;52.466;-1.938;2022-09-21T05:43:07;100828.06;;;10.81;100.00
63607;BME280;51327;52.466;-1.938;2022-09-21T05:45:43;100854.88;;;10.97;100.00
63607;BME280;51327;52.466;-1.938;2022-09-21T05:48:17;100830.72;;;10.81;100.00
63607;BME280;51327;52.466;-1.938;2022-09-21T05:56:21;100855.00;;;10.94;100.00
63607;BME280;51327;52.466;-1.938;2022-09-21T05:58:59;100852.28;;;10.96;100.00
63607;BME280;51327;52.466;-1.938;2022-09-21T06:04:02;100816.69;;;10.76;100.00
63607;BME280;51327;52.466;-1.938;2022-09-21T06:06:30;100829.69;;;10.84;100.00
63607;BME280;51327;52.466;-1.938;2022-09-21T06:08:58;100834.75;;;10.90;100.00
63607;BME280;51327;52.466;-1.938;2022-09-21T06:11:25;100851.25;;;10.98;100.00
63607;BME280;51327;52.466;-1.938;2022-09-21T06:13:51;100833.06;;;10.87;100.00
63607;BME280;51327;52.466;-1.938;2022-09-21T06:16:17;100869.38;;;11.11;100.00
63607;BME280;51327;52.466;-1.938;2022-09-21T06:18:44;100808.69;;;10.76;100.00
63607;BME280;51327;52.466;-1.938;2022-09-21T06:21:12;100847.66;;;10.99;100.00
63607;BME280;51327;52.466;-1.938;2022-09-21T06:23:40;100801.63;;;10.75;100.00
63607;BME280;51327;52.466;-1.938;2022-09-21T06:26:07;100843.72;;;11.06;100.00
63607;BME280;51327;52.466;-1.938;2022-09-21T06:28:35;100830.44;;;11.05;99.90
63607;BME280;51327;52.466;-1.938;2022-09-21T06:31:00;100859.75;;;11.24;100.00
63607;BME280;51327;52.466;-1.938;2022-09-21T06:33:26;100839.63;;;11.17;100.00
63607;BME280;51327;52.466;-1.938;2022-09-21T06:35:58;100867.00;;;11.39;99.83
63607;BME280;51327;52.466;-1.938;2022-09-21T06:38:26;100846.09;;;11.30;99.37
63607;BME280;51327;52.466;-1.938;2022-09-21T06:40:52;100863.00;;;11.48;99.71
63607;BME280;51327;52.466;-1.938;2022-09-21T06:43:20;100827.31;;;11.32;99.52
63607;BME280;51327;52.466;-1.938;2022-09-21T06:45:54;100875.84;;;11.59;99.24
63607;BME280;51327;52.466;-1.938;2022-09-21T06:48:22;100848.53;;;11.52;99.01
63607;BME280;51327;52.466;-1.938;2022-09-21T06:50:50;100829.25;;;11.45;99.08
63607;BME280;51327;52.466;-1.938;2022-09-21T06:53:18;100826.50;;;11.47;98.85
63607;BME280;51327;52.466;-1.938;2022-09-21T06:55:46;100827.19;;;11.50;98.53
63607;BME280;51327;52.466;-1.938;2022-09-21T06:58:13;100799.28;;;11.39;98.42
63607;BME280;51327;52.466;-1.938;2022-09-21T07:00:41;100816.97;;;11.59;98.27
63607;BME280;51327;52.466;-1.938;2022-09-21T07:03:10;100813.69;;;11.54;97.96
63607;BME280;51327;52.466;-1.938;2022-09-21T07:05:39;100866.06;;;11.93;97.99
63607;BME280;51327;52.466;-1.938;2022-09-21T07:08:13;100814.50;;;11.71;97.57
63607;BME280;51327;52.466;-1.938;2022-09-21T07:10:40;100844.94;;;11.86;97.61
63607;BME280;51327;52.466;-1.938;2022-09-21T07:13:08;100840.09;;;11.95;97.40
63607;BME280;51327;52.466;-1.938;2022-09-21T07:15:36;100825.13;;;11.90;96.88
63607;BME280;51327;52.466;-1.938;2022-09-21T07:18:10;100809.44;;;11.83;96.88
63607;BME280;51327;52.466;-1.938;2022-09-21T07:20:37;100835.88;;;12.06;96.56
63607;BME280;51327;52.466;-1.938;2022-09-21T07:23:10;100832.22;;;12.07;96.61
63607;BME280;51327;52.466;-1.938;2022-09-21T07:25:38;100790.56;;;11.86;96.30
63607;BME280;51327;52.466;-1.938;2022-09-21T07:28:04;100868.31;;;12.33;96.31
63607;BME280;51327;52.466;-1.938;2022-09-21T07:30:32;100835.13;;;12.20;96.23
63607;BME280;51327;52.466;-1.938;2022-09-21T07:32:57;100807.88;;;12.12;96.20
63607;BME280;51327;52.466;-1.938;2022-09-21T07:35:25;100789.41;;;12.07;95.87
63607;BME280;51327;52.466;-1.938;2022-09-21T07:37:56;100860.28;;;12.49;95.91
63607;BME280;51327;52.466;-1.938;2022-09-21T07:40:22;100795.19;;;12.16;95.59
63607;BME280;51327;52.466;-1.938;2022-09-21T07:42:48;100786.22;;;12.17;95.67
63607;BME280;51327;52.466;-1.938;2022-09-21T07:45:16;100790.97;;;12.27;95.28
63607;BME280;51327;52.466;-1.938;2022-09-21T07:47:44;100804.09;;;12.48;95.10
63607;BME280;51327;52.466;-1.938;2022-09-21T07:50:10;100813.25;;;12.60;94.84
63607;BME280;51327;52.466;-1.938;2022-09-21T07:52:36;100861.66;;;12.88;94.18
63607;BME280;51327;52.466;-1.938;2022-09-21T07:55:04;100846.63;;;12.86;93.93
63607;BME280;51327;52.466;-1.938;2022-09-21T07:57:32;100768.22;;;12.50;93.63
63607;BME280;51327;52.466;-1.938;2022-09-21T08:00:18;100804.66;;;12.85;92.88
63607;BME280;51327;52.466;-1.938;2022-09-21T08:02:46;100852.78;;;13.18;92.29
63607;BME280;51327;52.466;-1.938;2022-09-21T08:05:12;100816.56;;;13.11;91.94
63607;BME280;51327;52.466;-1.938;2022-09-21T08:07:43;100831.66;;;13.28;91.22
63607;BME280;51327;52.466;-1.938;2022-09-21T08:10:11;100768.22;;;12.96;90.16
63607;BME280;51327;52.466;-1.938;2022-09-21T08:12:37;100843.69;;;13.51;90.10
63607;BME280;51327;52.466;-1.938;2022-09-21T08:15:03;100816.66;;;13.40;89.63
63607;BME280;51327;52.466;-1.938;2022-09-21T08:17:31;100810.72;;;13.49;89.31
63607;BME280;51327;52.466;-1.938;2022-09-21T08:19:57;100844.91;;;13.75;88.72
63607;BME280;51327;52.466;-1.938;2022-09-21T08:22:23;100838.59;;;13.76;88.69
63607;BME280;51327;52.466;-1.938;2022-09-21T08:24:52;100838.50;;;13.92;88.34
63607;BME280;51327;52.466;-1.938;2022-09-21T08:27:20;100769.03;;;13.57;86.19
63607;BME280;51327;52.466;-1.938;2022-09-21T08:29:47;100766.69;;;13.67;86.48
63607;BME280;51327;52.466;-1.938;2022-09-21T08:32:15;100752.88;;;13.59;85.99
63607;BME280;51327;52.466;-1.938;2022-09-21T08:34:41;100767.25;;;13.72;85.49
63607;BME280;51327;52.466;-1.938;2022-09-21T08:37:06;100755.53;;;13.73;84.76
63607;BME280;51327;52.466;-1.938;2022-09-21T08:39:34;100809.03;;;14.19;83.61
63607;BME280;51327;52.466;-1.938;2022-09-21T08:45:03;100823.00;;;14.39;81.99
63607;BME280;51327;52.466;-1.938;2022-09-21T08:47:41;100818.31;;;14.43;81.93
63607;BME280;51327;52.466;-1.938;2022-09-21T08:50:43;100849.31;;;14.63;80.88
63607;BME280;51327;52.466;-1.938;2022-09-21T08:53:23;100847.19;;;14.68;81.05
63607;BME280;51327;52.466;-1.938;2022-09-21T08:56:01;100846.41;;;14.66;80.62
63607;BME280;51327;52.466;-1.938;2022-09-21T08:58:29;100854.09;;;14.72;79.46
63607;BME280;51327;52.466;-1.938;2022-09-21T09:06:26;100853.88;;;14.75;79.22
63607;BME280;51327;52.466;-1.938;2022-09-21T09:17:20;100853.13;;;15.00;77.52
63607;BME280;51327;52.466;-1.938;2022-09-21T09:20:16;100853.56;;;15.07;77.75
63607;BME280;51327;52.466;-1.938;2022-09-21T09:22:49;100836.75;;;15.03;76.96
63607;BME280;51327;52.466;-1.938;2022-09-21T09:25:22;100856.31;;;15.19;76.66
63607;BME280;51327;52.466;-1.938;2022-09-21T09:27:53;100834.53;;;15.10;75.83
63607;BME280;51327;52.466;-1.938;2022-09-21T09:30:29;100815.69;;;15.10;76.23
63607;BME280;51327;52.466;-1.938;2022-09-21T09:33:19;100829.72;;;15.28;75.73
63607;BME280;51327;52.466;-1.938;2022-09-21T09:35:53;100830.09;;;15.36;75.68
63607;BME280;51327;52.466;-1.938;2022-09-21T09:41:36;100861.63;;;15.74;73.95
63607;BME280;51327;52.466;-1.938;2022-09-21T09:50:34;100855.38;;;15.86;72.91
63607;BME280;51327;52.466;-1.938;2022-09-21T09:55:39;100836.09;;;15.79;73.28
63607;BME280;51327;52.466;-1.938;2022-09-21T09:58:22;100850.53;;;16.04;73.20
63607;BME280;51327;52.466;-1.938;2022-09-21T10:00:52;100822.41;;;15.95;72.63
63607;BME280;51327;52.466;-1.938;2022-09-21T10:03:23;100847.78;;;16.17;72.10
63607;BME280;51327;52.466;-1.938;2022-09-21T10:05:52;100837.78;;;16.19;71.68
63607;BME280;51327;52.466;-1.938;2022-09-21T10:11:12;100844.41;;;16.39;71.32
63607;BME280;51327;52.466;-1.938;2022-09-21T10:13:41;100795.53;;;16.19;71.02
63607;BME280;51327;52.466;-1.938;2022-09-21T10:16:14;100849.16;;;16.48;71.42
63607;BME280;51327;52.466;-1.938;2022-09-21T10:18:53;100815.75;;;16.38;71.00
63607;BME280;51327;52.466;-1.938;2022-09-21T10:21:38;100801.28;;;16.39;70.32
63607;BME280;51327;52.466;-1.938;2022-09-21T10:24:22;100808.59;;;16.49;69.99
63607;BME280;51327;52.466;-1.938;2022-09-21T10:27:02;100819.03;;;16.54;69.59
63607;BME280;51327;52.466;-1.938;2022-09-21T10:29:42;100838.41;;;16.72;68.95
63607;BME280;51327;52.466;-1.938;2022-09-21T10:34:40;100841.19;;;16.83;69.12
63607;BME280;51327;52.466;-1.938;2022-09-21T10:39:55;100811.38;;;16.61;68.15
63607;BME280;51327;52.466;-1.938;2022-09-21T10:42:33;100831.75;;;16.65;67.87
63607;BME280;51327;52.466;-1.938;2022-09-21T10:47:48;100780.22;;;16.20;67.94
63607;BME280;51327;52.466;-1.938;2022-09-21T10:50:40;100805.50;;;16.30;67.56
63607;BME280;51327;52.466;-1.938;2022-09-21T10:53:26;100821.16;;;16.38;67.89
63607;BME280;51327;52.466;-1.938;2022-09-21T10:56:14;100786.38;;;16.22;67.84
63607;BME280;51327;52.466;-1.938;2022-09-21T11:01:45;100801.94;;;16.42;67.94
63607;BME280;51327;52.466;-1.938;2022-09-21T11:07:16;100812.31;;;16.60;67.44
63607;BME280;51327;52.466;-1.938;2022-09-21T11:18:15;100806.53;;;16.90;66.13
63607;BME280;51327;52.466;-1.938;2022-09-21T11:20:58;100751.94;;;16.74;65.23
63607;BME280;51327;52.466;-1.938;2022-09-21T11:31:47;100775.75;;;18.08;63.75
63607;BME280;51327;52.466;-1.938;2022-09-21T11:46:06;100778.94;;;18.02;61.90
63607;BME280;51327;52.466;-1.938;2022-09-21T11:51:34;100746.50;;;18.02;62.51
63607;BME280;51327;52.466;-1.938;2022-09-21T11:57:30;100765.03;;;18.29;61.25
63607;BME280;51327;52.466;-1.938;2022-09-21T12:00:22;100742.56;;;18.06;60.71
63607;BME280;51327;52.466;-1.938;2022-09-21T12:13:48;100749.31;;;17.89;61.05
63607;BME280;51327;52.466;-1.938;2022-09-21T12:22:26;100727.44;;;17.70;60.21
63607;BME280;51327;52.466;-1.938;2022-09-21T12:24:58;100723.16;;;17.67;60.31
63607;BME280;51327;52.466;-1.938;2022-09-21T12:30:34;100746.75;;;17.88;59.91
63607;BME280;51327;52.466;-1.938;2022-09-21T12:38:14;100716.56;;;17.94;59.59
63607;BME280;51327;52.466;-1.938;2022-09-21T12:43:38;100735.47;;;17.94;59.33
63607;BME280;51327;52.466;-1.938;2022-09-21T12:46:25;100708.78;;;17.78;59.96
63607;BME280;51327;52.466;-1.938;2022-09-21T12:48:55;100710.25;;;17.71;58.98
63607;BME280;51327;52.466;-1.938;2022-09-21T12:53:58;100725.25;;;17.86;58.74
63607;BME280;51327;52.466;-1.938;2022-09-21T12:56:33;100738.28;;;17.92;58.13
63607;BME280;51327;52.466;-1.938;2022-09-21T13:04:36;100726.59;;;17.81;58.08
63607;BME280;51327;52.466;-1.938;2022-09-21T13:10:12;100663.84;;;17.32;58.55
63607;BME280;51327;52.466;-1.938;2022-09-21T13:12:43;100715.41;;;17.51;58.77
63607;BME280;51327;52.466;-1.938;2022-09-21T13:15:15;100668.84;;;17.25;59.06
63607;BME280;51327;52.466;-1.938;2022-09-21T13:17:44;100684.69;;;17.30;59.56
63607;BME280;51327;52.466;-1.938;2022-09-21T13:20:20;100710.59;;;17.55;59.48
63607;BME280;51327;52.466;-1.938;2022-09-21T13:22:57;100690.75;;;17.56;59.53
63607;BME280;51327;52.466;-1.938;2022-09-21T13:25:27;100705.47;;;17.74;59.54
63607;BME280;51327;52.466;-1.938;2022-09-21T13:30:43;100707.72;;;17.92;58.68
63607;BME280;51327;52.466;-1.938;2022-09-21T13:38:27;100666.44;;;17.90;58.95
63607;BME280;51327;52.466;-1.938;2022-09-21T13:51:55;100693.38;;;18.35;58.35
63607;BME280;51327;52.466;-1.938;2022-09-21T13:54:26;100640.31;;;18.11;57.97
63607;BME280;51327;52.466;-1.938;2022-09-21T14:02:58;100668.41;;;18.31;58.16
63607;BME280;51327;52.466;-1.938;2022-09-21T14:05:32;100683.75;;;18.42;57.52
63607;BME280;51327;52.466;-1.938;2022-09-21T14:10:34;100691.25;;;18.39;57.48
63607;BME280;51327;52.466;-1.938;2022-09-21T14:13:15;100687.69;;;18.38;57.92
63607;BME280;51327;52.466;-1.938;2022-09-21T14:15:49;100630.63;;;18.09;57.04
63607;BME280;51327;52.466;-1.938;2022-09-21T14:18:34;100677.25;;;18.33;56.22
63607;BME280;51327;52.466;-1.938;2022-09-21T14:23:38;100636.13;;;18.19;56.74
63607;BME280;51327;52.466;-1.938;2022-09-21T14:26:32;100660.38;;;18.41;56.48
63607;BME280;51327;52.466;-1.938;2022-09-21T14:31:39;100663.34;;;18.38;56.06
63607;BME280;51327;52.466;-1.938;2022-09-21T14:34:11;100628.28;;;18.15;55.71
63607;BME280;51327;52.466;-1.938;2022-09-21T14:36:44;100639.09;;;18.15;56.14
63607;BME280;51327;52.466;-1.938;2022-09-21T14:39:19;100653.06;;;18.21;55.81
63607;BME280;51327;52.466;-1.938;2022-09-21T14:41:52;100624.13;;;18.00;56.17
63607;BME280;51327;52.466;-1.938;2022-09-21T14:44:21;100640.44;;;18.10;56.32
63607;BME280;51327;52.466;-1.938;2022-09-21T14:47:16;100645.97;;;18.20;56.38
63607;BME280;51327;52.466;-1.938;2022-09-21T14:56:01;100614.56;;;17.96;56.51
63607;BME280;51327;52.466;-1.938;2022-09-21T15:01:33;100639.00;;;18.06;56.05
63607;BME280;51327;52.466;-1.938;2022-09-21T15:10:29;100632.03;;;17.92;55.75
63607;BME280;51327;52.466;-1.938;2022-09-21T15:16:39;100605.00;;;17.81;55.89
63607;BME280;51327;52.466;-1.938;2022-09-21T15:19:27;100615.22;;;17.88;55.00
63607;BME280;51327;52.466;-1.938;2022-09-21T15:22:13;100619.88;;;17.86;56.23
63607;BME280;51327;52.466;-1.938;2022-09-21T15:25:01;100619.50;;;17.80;55.89
63607;BME280;51327;52.466;-1.938;2022-09-21T15:27:28;100599.75;;;17.68;55.44
63607;BME280;51327;52.466;-1.938;2022-09-21T15:30:02;100599.66;;;17.58;55.19
63607;BME280;51327;52.466;-1.938;2022-09-21T15:32:40;100604.41;;;17.66;55.59
63607;BME280;51327;52.466;-1.938;2022-09-21T15:35:21;100599.66;;;17.58;56.11
63607;BME280;51327;52.466;-1.938;2022-09-21T15:37:49;100609.34;;;17.61;55.96
63607;BME280;51327;52.466;-1.938;2022-09-21T15:40:27;100614.75;;;17.61;55.97
63607;BME280;51327;52.466;-1.938;2022-09-21T15:45:30;100600.41;;;17.49;56.56
63607;BME280;51327;52.466;-1.938;2022-09-21T15:48:01;100525.31;;;17.09;57.16
63607;BME280;51327;52.466;-1.938;2022-09-21T15:50:31;100595.38;;;17.44;56.51
63607;BME280;51327;52.466;-1.938;2022-09-21T15:53:21;100555.63;;;17.13;56.62
63607;BME280;51327;52.466;-1.938;2022-09-21T15:55:49;100540.41;;;17.00;56.74
63607;BME280;51327;52.466;-1.938;2022-09-21T15:58:34;100595.97;;;17.37;56.72
63607;BME280;51327;52.466;-1.938;2022-09-21T16:01:09;100521.78;;;16.86;56.68
63607;BME280;51327;52.466;-1.938;2022-09-21T16:03:39;100592.91;;;17.30;56.89
63607;BME280;51327;52.466;-1.938;2022-09-21T16:06:28;100594.63;;;17.20;57.25
63607;BME280;51327;52.466;-1.938;2022-09-21T16:11:56;100577.69;;;16.95;57.38
63607;BME280;51327;52.466;-1.938;2022-09-21T16:14:24;100560.00;;;16.80;57.78
63607;BME280;51327;52.466;-1.938;2022-09-21T16:22:22;100584.06;;;16.83;58.80
63607;BME280;51327;52.466;-1.938;2022-09-21T16:24:54;100587.94;;;16.79;59.07
63607;BME280;51327;52.466;-1.938;2022-09-21T16:27:24;100584.63;;;16.75;58.95
63607;BME280;51327;52.466;-1.938;2022-09-21T16:29:56;100568.31;;;16.65;58.33
63607;BME280;51327;52.466;-1.938;2022-09-21T16:32:32;100572.22;;;16.73;58.83
63607;BME280;51327;52.466;-1.938;2022-09-21T16:35:23;100587.47;;;16.85;58.75
63607;BME280;51327;52.466;-1.938;2022-09-21T16:37:52;100588.09;;;16.88;58.68
63607;BME280;51327;52.466;-1.938;2022-09-21T16:40:25;100544.03;;;16.65;58.58
63607;BME280;51327;52.466;-1.938;2022-09-21T16:42:51;100573.88;;;16.86;59.12